Hartford, Connecticut
Traffic Map
Current Weather Conditions
Hartford, Connecticut
Clear
Clear
58°
Feels Like: 58°
Wind Chill: 58° Ceiling: Unl
Heat Index: 58° Visibility: 10mi
Dew Point: 57° Wind: 5mph
Humidity: 97% Direction: 190° (S)
Pressure: 29.97in Gusts: 0mph
Raw Report DataKHFD 260853Z AUTO 19004KT 10SM CLR 14/14 A2997 RMK AO2 SLP149 T01440139 55001
Traffic Incident Summary
Active as of:
Severity:
Category:
InformationThere was an issue retrieving the traffic information for this location. Please try a different location or try again shortly.
Advertisements
Track Severe Weather on mobile